sensor_id;sensor_type;location;lat;lon;timestamp;pressure;altitude;pressure_sealevel;temperature;humidity
48267;BME280;34088;52.232;5.196;2023-08-17T00:01:01;102188.84;;;17.99;73.25
48267;BME280;34088;52.232;5.196;2023-08-17T00:03:26;102186.19;;;18.01;73.10
48267;BME280;34088;52.232;5.196;2023-08-17T00:05:51;102181.97;;;17.97;73.35
48267;BME280;34088;52.232;5.196;2023-08-17T00:08:16;102182.84;;;17.97;72.88
48267;BME280;34088;52.232;5.196;2023-08-17T00:10:42;102189.78;;;17.98;73.04
48267;BME280;34088;52.232;5.196;2023-08-17T00:13:07;102190.09;;;17.91;73.60
48267;BME280;34088;52.232;5.196;2023-08-17T00:15:33;102194.38;;;17.93;73.17
48267;BME280;34088;52.232;5.196;2023-08-17T00:17:58;102189.19;;;17.92;73.00
48267;BME280;34088;52.232;5.196;2023-08-17T00:33:04;102201.84;;;17.62;73.88
48267;BME280;34088;52.232;5.196;2023-08-17T00:35:29;102203.13;;;17.52;74.29
48267;BME280;34088;52.232;5.196;2023-08-17T00:37:55;102199.16;;;17.42;75.03
48267;BME280;34088;52.232;5.196;2023-08-17T00:40:20;102193.00;;;17.43;74.87
48267;BME280;34088;52.232;5.196;2023-08-17T00:42:45;102201.00;;;17.40;74.99
48267;BME280;34088;52.232;5.196;2023-08-17T00:45:11;102195.03;;;17.37;75.12
48267;BME280;34088;52.232;5.196;2023-08-17T00:47:36;102194.97;;;17.38;75.25
48267;BME280;34088;52.232;5.196;2023-08-17T00:50:01;102186.50;;;17.32;75.46
48267;BME280;34088;52.232;5.196;2023-08-17T00:52:28;102187.22;;;17.35;75.18
48267;BME280;34088;52.232;5.196;2023-08-17T00:54:54;102196.00;;;17.34;75.30
48267;BME280;34088;52.232;5.196;2023-08-17T00:57:20;102190.16;;;17.28;75.61
48267;BME280;34088;52.232;5.196;2023-08-17T00:59:46;102190.03;;;17.31;75.37
48267;BME280;34088;52.232;5.196;2023-08-17T01:02:11;102188.31;;;17.30;75.27
48267;BME280;34088;52.232;5.196;2023-08-17T01:04:36;102192.75;;;17.28;74.80
48267;BME280;34088;52.232;5.196;2023-08-17T01:07:02;102180.78;;;17.22;75.07
48267;BME280;34088;52.232;5.196;2023-08-17T01:09:27;102175.63;;;17.21;75.01
48267;BME280;34088;52.232;5.196;2023-08-17T01:11:59;102185.88;;;17.25;74.88
48267;BME280;34088;52.232;5.196;2023-08-17T01:14:52;102179.06;;;17.21;75.09
48267;BME280;34088;52.232;5.196;2023-08-17T01:17:37;102175.66;;;17.19;75.45
48267;BME280;34088;52.232;5.196;2023-08-17T01:20:05;102173.09;;;17.18;75.41
48267;BME280;34088;52.232;5.196;2023-08-17T01:22:33;102171.88;;;17.26;74.94
48267;BME280;34088;52.232;5.196;2023-08-17T01:25:00;102156.56;;;17.17;74.93
48267;BME280;34088;52.232;5.196;2023-08-17T01:27:29;102156.56;;;17.17;75.34
48267;BME280;34088;52.232;5.196;2023-08-17T01:29:54;102156.81;;;17.11;75.17
48267;BME280;34088;52.232;5.196;2023-08-17T01:32:31;102159.59;;;17.07;75.82
48267;BME280;34088;52.232;5.196;2023-08-17T01:35:16;102163.84;;;17.09;75.39
48267;BME280;34088;52.232;5.196;2023-08-17T01:37:43;102166.81;;;17.02;75.88
48267;BME280;34088;52.232;5.196;2023-08-17T01:40:10;102166.91;;;16.99;75.94
48267;BME280;34088;52.232;5.196;2023-08-17T01:42:38;102172.88;;;17.02;75.76
48267;BME280;34088;52.232;5.196;2023-08-17T01:45:04;102169.09;;;17.09;75.59
48267;BME280;34088;52.232;5.196;2023-08-17T01:47:30;102177.28;;;17.02;75.77
48267;BME280;34088;52.232;5.196;2023-08-17T01:49:55;102179.94;;;17.00;75.98
48267;BME280;34088;52.232;5.196;2023-08-17T01:52:26;102181.63;;;17.01;75.88
48267;BME280;34088;52.232;5.196;2023-08-17T01:54:52;102181.78;;;16.98;75.77
48267;BME280;34088;52.232;5.196;2023-08-17T01:57:18;102178.50;;;16.93;75.97
48267;BME280;34088;52.232;5.196;2023-08-17T01:59:43;102178.34;;;16.96;75.92
48267;BME280;34088;52.232;5.196;2023-08-17T02:02:08;102172.44;;;16.91;76.38
48267;BME280;34088;52.232;5.196;2023-08-17T02:04:34;102172.16;;;16.99;75.68
48267;BME280;34088;52.232;5.196;2023-08-17T02:07:00;102170.78;;;16.89;76.19
48267;BME280;34088;52.232;5.196;2023-08-17T02:09:25;102170.75;;;16.90;76.08
48267;BME280;34088;52.232;5.196;2023-08-17T02:11:50;102167.16;;;16.93;75.89
48267;BME280;34088;52.232;5.196;2023-08-17T02:14:15;102176.03;;;16.89;76.17
48267;BME280;34088;52.232;5.196;2023-08-17T02:16:41;102165.81;;;16.83;76.56
48267;BME280;34088;52.232;5.196;2023-08-17T02:19:07;102173.97;;;16.75;77.09
48267;BME280;34088;52.232;5.196;2023-08-17T02:21:32;102178.97;;;16.81;76.86
48267;BME280;34088;52.232;5.196;2023-08-17T02:23:57;102169.53;;;16.77;76.97
48267;BME280;34088;52.232;5.196;2023-08-17T02:26:22;102162.50;;;16.78;77.12
48267;BME280;34088;52.232;5.196;2023-08-17T02:28:48;102159.25;;;16.73;76.97
48267;BME280;34088;52.232;5.196;2023-08-17T02:31:13;102169.34;;;16.82;76.74
48267;BME280;34088;52.232;5.196;2023-08-17T02:33:38;102171.28;;;16.77;77.17
48267;BME280;34088;52.232;5.196;2023-08-17T02:36:04;102162.69;;;16.73;77.29
48267;BME280;34088;52.232;5.196;2023-08-17T02:38:29;102164.34;;;16.76;77.35
48267;BME280;34088;52.232;5.196;2023-08-17T02:40:54;102154.75;;;16.76;77.32
48267;BME280;34088;52.232;5.196;2023-08-17T02:43:20;102144.41;;;16.73;77.40
48267;BME280;34088;52.232;5.196;2023-08-17T02:45:45;102152.91;;;16.78;77.05
48267;BME280;34088;52.232;5.196;2023-08-17T02:48:10;102149.44;;;16.78;76.95
48267;BME280;34088;52.232;5.196;2023-08-17T02:50:35;102152.28;;;16.72;77.54
48267;BME280;34088;52.232;5.196;2023-08-17T02:53:01;102148.06;;;16.69;77.43
48267;BME280;34088;52.232;5.196;2023-08-17T02:55:27;102157.91;;;16.63;77.75
48267;BME280;34088;52.232;5.196;2023-08-17T02:57:52;102160.91;;;16.75;77.33
48267;BME280;34088;52.232;5.196;2023-08-17T03:00:17;102156.69;;;16.71;77.39
48267;BME280;34088;52.232;5.196;2023-08-17T03:02:43;102152.38;;;16.70;77.19
48267;BME280;34088;52.232;5.196;2023-08-17T03:05:08;102146.34;;;16.68;77.61
48267;BME280;34088;52.232;5.196;2023-08-17T03:07:33;102148.31;;;16.63;77.65
48267;BME280;34088;52.232;5.196;2023-08-17T03:09:58;102151.66;;;16.67;77.67
48267;BME280;34088;52.232;5.196;2023-08-17T03:12:24;102151.69;;;16.65;77.94
48267;BME280;34088;52.232;5.196;2023-08-17T03:14:49;102149.88;;;16.67;77.72
48267;BME280;34088;52.232;5.196;2023-08-17T03:17:14;102151.56;;;16.68;77.68
48267;BME280;34088;52.232;5.196;2023-08-17T03:19:40;102154.19;;;16.68;77.59
48267;BME280;34088;52.232;5.196;2023-08-17T03:22:05;102153.22;;;16.71;77.38
48267;BME280;34088;52.232;5.196;2023-08-17T03:24:31;102154.81;;;16.75;77.60
48267;BME280;34088;52.232;5.196;2023-08-17T03:26:56;102157.28;;;16.78;77.23
48267;BME280;34088;52.232;5.196;2023-08-17T03:29:21;102153.59;;;16.83;77.08
48267;BME280;34088;52.232;5.196;2023-08-17T03:31:46;102165.22;;;16.76;77.59
48267;BME280;34088;52.232;5.196;2023-08-17T03:34:12;102160.22;;;16.70;77.74
48267;BME280;34088;52.232;5.196;2023-08-17T03:36:37;102158.34;;;16.74;77.42
48267;BME280;34088;52.232;5.196;2023-08-17T03:39:02;102151.47;;;16.71;77.64
48267;BME280;34088;52.232;5.196;2023-08-17T03:41:28;102151.47;;;16.71;77.49
48267;BME280;34088;52.232;5.196;2023-08-17T03:43:53;102152.44;;;16.69;77.59
48267;BME280;34088;52.232;5.196;2023-08-17T03:46:18;102151.28;;;16.76;77.44
48267;BME280;34088;52.232;5.196;2023-08-17T03:48:43;102143.19;;;16.60;77.63
48267;BME280;34088;52.232;5.196;2023-08-17T03:51:09;102147.63;;;16.58;77.99
48267;BME280;34088;52.232;5.196;2023-08-17T03:53:34;102151.75;;;16.64;77.79
48267;BME280;34088;52.232;5.196;2023-08-17T03:55:59;102147.94;;;16.72;77.22
48267;BME280;34088;52.232;5.196;2023-08-17T03:58:24;102151.41;;;16.73;77.19
48267;BME280;34088;52.232;5.196;2023-08-17T04:00:52;102144.34;;;16.75;77.26
48267;BME280;34088;52.232;5.196;2023-08-17T04:03:18;102148.91;;;16.70;77.55
48267;BME280;34088;52.232;5.196;2023-08-17T04:05:44;102151.69;;;16.65;77.69
48267;BME280;34088;52.232;5.196;2023-08-17T04:08:09;102155.09;;;16.67;77.48
48267;BME280;34088;52.232;5.196;2023-08-17T04:10:34;102151.50;;;16.70;77.21
48267;BME280;34088;52.232;5.196;2023-08-17T04:12:59;102159.16;;;16.74;77.05
48267;BME280;34088;52.232;5.196;2023-08-17T04:15:25;102157.66;;;16.69;76.96
48267;BME280;34088;52.232;5.196;2023-08-17T04:17:50;102147.63;;;16.58;77.72
48267;BME280;34088;52.232;5.196;2023-08-17T04:20:15;102150.97;;;16.62;77.48
48267;BME280;34088;52.232;5.196;2023-08-17T04:22:41;102152.72;;;16.61;77.64
48267;BME280;34088;52.232;5.196;2023-08-17T04:25:06;102151.94;;;16.59;77.60
48267;BME280;34088;52.232;5.196;2023-08-17T04:27:32;102156.59;;;16.51;77.92
48267;BME280;34088;52.232;5.196;2023-08-17T04:29:58;102149.38;;;16.58;77.71
48267;BME280;34088;52.232;5.196;2023-08-17T04:32:23;102150.25;;;16.58;77.80
48267;BME280;34088;52.232;5.196;2023-08-17T04:34:48;102155.47;;;16.58;77.45
48267;BME280;34088;52.232;5.196;2023-08-17T04:37:14;102148.31;;;16.63;77.38
48267;BME280;34088;52.232;5.196;2023-08-17T04:39:39;102148.94;;;16.68;77.14
48267;BME280;34088;52.232;5.196;2023-08-17T04:42:06;102139.66;;;16.61;77.63
48267;BME280;34088;52.232;5.196;2023-08-17T04:44:31;102137.16;;;16.58;77.64
48267;BME280;34088;52.232;5.196;2023-08-17T04:46:56;102144.03;;;16.61;77.69
48267;BME280;34088;52.232;5.196;2023-08-17T04:49:22;102143.06;;;16.63;77.41
48267;BME280;34088;52.232;5.196;2023-08-17T04:51:47;102139.78;;;16.58;77.52
48267;BME280;34088;52.232;5.196;2023-08-17T04:54:12;102137.94;;;16.60;77.20
48267;BME280;34088;52.232;5.196;2023-08-17T04:56:38;102135.78;;;16.71;77.01
48267;BME280;34088;52.232;5.196;2023-08-17T04:59:03;102135.16;;;16.65;77.44
48267;BME280;34088;52.232;5.196;2023-08-17T05:01:28;102136.75;;;16.69;77.30
48267;BME280;34088;52.232;5.196;2023-08-17T05:03:53;102131.56;;;16.67;77.31
48267;BME280;34088;52.232;5.196;2023-08-17T05:06:19;102132.47;;;16.66;77.40
48267;BME280;34088;52.232;5.196;2023-08-17T05:08:45;102132.44;;;16.68;77.29
48267;BME280;34088;52.232;5.196;2023-08-17T05:11:10;102133.22;;;16.70;77.24
48267;BME280;34088;52.232;5.196;2023-08-17T05:13:35;102127.94;;;16.71;77.23
48267;BME280;34088;52.232;5.196;2023-08-17T05:16:00;102122.97;;;16.64;77.77
48267;BME280;34088;52.232;5.196;2023-08-17T05:18:26;102123.59;;;16.70;77.20
48267;BME280;34088;52.232;5.196;2023-08-17T05:20:51;102123.53;;;16.72;77.19
48267;BME280;34088;52.232;5.196;2023-08-17T05:23:16;102127.16;;;16.69;77.29
48267;BME280;34088;52.232;5.196;2023-08-17T05:25:41;102127.78;;;16.74;77.23
48267;BME280;34088;52.232;5.196;2023-08-17T05:28:07;102125.31;;;16.71;77.64
48267;BME280;34088;52.232;5.196;2023-08-17T05:30:32;102127.72;;;16.76;77.25
48267;BME280;34088;52.232;5.196;2023-08-17T05:32:57;102123.53;;;16.72;77.33
48267;BME280;34088;52.232;5.196;2023-08-17T05:35:23;102119.16;;;16.72;77.36
48267;BME280;34088;52.232;5.196;2023-08-17T05:37:48;102124.28;;;16.75;77.40
48267;BME280;34088;52.232;5.196;2023-08-17T05:40:13;102121.72;;;16.74;77.69
48267;BME280;34088;52.232;5.196;2023-08-17T05:42:39;102131.88;;;16.81;77.27
48267;BME280;34088;52.232;5.196;2023-08-17T05:45:04;102129.19;;;16.83;77.11
48267;BME280;34088;52.232;5.196;2023-08-17T05:47:30;102132.97;;;16.76;77.49
48267;BME280;34088;52.232;5.196;2023-08-17T05:49:55;102137.72;;;16.88;77.13
48267;BME280;34088;52.232;5.196;2023-08-17T05:52:21;102136.75;;;16.90;77.16
48267;BME280;34088;52.232;5.196;2023-08-17T05:54:46;102127.38;;;16.85;77.25
48267;BME280;34088;52.232;5.196;2023-08-17T05:57:11;102140.31;;;16.88;77.19
48267;BME280;34088;52.232;5.196;2023-08-17T05:59:37;102143.63;;;16.93;77.25
48267;BME280;34088;52.232;5.196;2023-08-17T06:02:02;102148.59;;;16.99;76.99
48267;BME280;34088;52.232;5.196;2023-08-17T06:04:27;102142.28;;;17.04;76.81
48267;BME280;34088;52.232;5.196;2023-08-17T06:06:52;102149.94;;;17.09;76.81
48267;BME280;34088;52.232;5.196;2023-08-17T06:09:18;102141.72;;;16.96;77.10
48267;BME280;34088;52.232;5.196;2023-08-17T06:11:43;102143.38;;;16.99;77.20
48267;BME280;34088;52.232;5.196;2023-08-17T06:14:08;102147.09;;;16.93;77.30
48267;BME280;34088;52.232;5.196;2023-08-17T06:16:34;102146.97;;;16.96;77.17
48267;BME280;34088;52.232;5.196;2023-08-17T06:19:00;102142.66;;;16.95;77.23
48267;BME280;34088;52.232;5.196;2023-08-17T06:21:25;102142.19;;;17.06;77.15
48267;BME280;34088;52.232;5.196;2023-08-17T06:23:50;102146.59;;;17.05;77.19
48267;BME280;34088;52.232;5.196;2023-08-17T06:26:15;102153.38;;;17.09;77.11
48267;BME280;34088;52.232;5.196;2023-08-17T06:28:41;102162.16;;;17.08;77.19
48267;BME280;34088;52.232;5.196;2023-08-17T06:31:06;102157.06;;;17.05;77.01
48267;BME280;34088;52.232;5.196;2023-08-17T06:33:32;102160.28;;;17.12;77.39
48267;BME280;34088;52.232;5.196;2023-08-17T06:35:57;102170.63;;;17.15;77.04
48267;BME280;34088;52.232;5.196;2023-08-17T06:38:22;102162.78;;;17.15;77.43
48267;BME280;34088;52.232;5.196;2023-08-17T06:40:47;102163.31;;;17.23;77.12
48267;BME280;34088;52.232;5.196;2023-08-17T06:43:13;102165.09;;;17.22;76.97
48267;BME280;34088;52.232;5.196;2023-08-17T06:45:38;102168.22;;;17.30;76.72
48267;BME280;34088;52.232;5.196;2023-08-17T06:48:04;102174.88;;;17.39;76.75
48267;BME280;34088;52.232;5.196;2023-08-17T06:50:29;102170.44;;;17.41;76.48
48267;BME280;34088;52.232;5.196;2023-08-17T06:52:54;102168.22;;;17.30;76.95
48267;BME280;34088;52.232;5.196;2023-08-17T06:55:19;102167.91;;;17.39;76.61
48267;BME280;34088;52.232;5.196;2023-08-17T06:57:45;102171.38;;;17.60;76.34
48267;BME280;34088;52.232;5.196;2023-08-17T07:00:11;102170.25;;;17.65;76.09
48267;BME280;34088;52.232;5.196;2023-08-17T07:02:37;102168.81;;;17.58;75.85
48267;BME280;34088;52.232;5.196;2023-08-17T07:05:03;102172.41;;;17.56;75.97
48267;BME280;34088;52.232;5.196;2023-08-17T07:07:29;102169.34;;;17.66;76.01
48267;BME280;34088;52.232;5.196;2023-08-17T07:09:56;102171.25;;;17.83;75.44
48267;BME280;34088;52.232;5.196;2023-08-17T07:12:22;102164.22;;;17.83;75.20
48267;BME280;34088;52.232;5.196;2023-08-17T07:14:48;102164.44;;;17.79;75.43
48267;BME280;34088;52.232;5.196;2023-08-17T07:17:14;102163.84;;;17.92;75.62
48267;BME280;34088;52.232;5.196;2023-08-17T07:19:40;102175.88;;;17.96;75.40
48267;BME280;34088;52.232;5.196;2023-08-17T07:22:06;102170.72;;;17.95;74.94
48267;BME280;34088;52.232;5.196;2023-08-17T07:24:31;102172.84;;;18.05;74.93
48267;BME280;34088;52.232;5.196;2023-08-17T07:26:56;102171.25;;;18.21;74.82
48267;BME280;34088;52.232;5.196;2023-08-17T07:29:22;102178.91;;;18.26;74.56
48267;BME280;34088;52.232;5.196;2023-08-17T07:31:47;102171.06;;;18.06;74.49
48267;BME280;34088;52.232;5.196;2023-08-17T07:34:12;102176.78;;;17.95;74.50
48267;BME280;34088;52.232;5.196;2023-08-17T07:36:37;102165.94;;;17.84;75.13
48267;BME280;34088;52.232;5.196;2023-08-17T07:39:03;102164.88;;;17.88;74.92
48267;BME280;34088;52.232;5.196;2023-08-17T07:41:29;102170.91;;;17.90;75.39
48267;BME280;34088;52.232;5.196;2023-08-17T07:43:54;102168.16;;;17.93;75.28
48267;BME280;34088;52.232;5.196;2023-08-17T07:46:20;102165.13;;;18.02;74.84
48267;BME280;34088;52.232;5.196;2023-08-17T07:48:45;102165.97;;;18.03;75.40
48267;BME280;34088;52.232;5.196;2023-08-17T07:51:10;102171.31;;;18.20;74.92
48267;BME280;34088;52.232;5.196;2023-08-17T07:53:36;102162.88;;;18.13;74.71
48267;BME280;34088;52.232;5.196;2023-08-17T07:56:01;102162.75;;;18.16;74.70
48267;BME280;34088;52.232;5.196;2023-08-17T07:58:26;102171.97;;;18.25;74.23
48267;BME280;34088;52.232;5.196;2023-08-17T08:00:52;102162.06;;;18.31;74.27
48267;BME280;34088;52.232;5.196;2023-08-17T08:03:18;102164.56;;;18.34;74.08
48267;BME280;34088;52.232;5.196;2023-08-17T08:05:43;102167.31;;;18.31;73.74
48267;BME280;34088;52.232;5.196;2023-08-17T08:08:08;102173.16;;;18.38;74.24
48267;BME280;34088;52.232;5.196;2023-08-17T08:10:34;102176.22;;;18.27;73.71
48267;BME280;34088;52.232;5.196;2023-08-17T08:12:59;102176.34;;;18.44;73.84
48267;BME280;34088;52.232;5.196;2023-08-17T08:15:24;102172.38;;;18.54;73.77
48267;BME280;34088;52.232;5.196;2023-08-17T08:17:50;102171.19;;;18.61;73.31
48267;BME280;34088;52.232;5.196;2023-08-17T08:20:15;102162.38;;;18.62;73.52
48267;BME280;34088;52.232;5.196;2023-08-17T08:22:41;102152.66;;;18.83;73.43
48267;BME280;34088;52.232;5.196;2023-08-17T08:25:06;102149.22;;;18.81;72.76
48267;BME280;34088;52.232;5.196;2023-08-17T08:27:32;102148.09;;;18.86;73.19
48267;BME280;34088;52.232;5.196;2023-08-17T08:29:57;102152.00;;;18.78;73.13
48267;BME280;34088;52.232;5.196;2023-08-17T08:32:22;102155.22;;;19.01;72.60
48267;BME280;34088;52.232;5.196;2023-08-17T08:34:47;102157.47;;;19.09;71.82
48267;BME280;34088;52.232;5.196;2023-08-17T08:37:13;102160.59;;;19.17;71.74
48267;BME280;34088;52.232;5.196;2023-08-17T08:39:51;102155.31;;;19.35;71.58
48267;BME280;34088;52.232;5.196;2023-08-17T08:42:18;102153.16;;;19.43;71.45
48267;BME280;34088;52.232;5.196;2023-08-17T08:44:44;102147.81;;;19.45;70.83
48267;BME280;34088;52.232;5.196;2023-08-17T08:47:11;102142.25;;;19.34;70.90
48267;BME280;34088;52.232;5.196;2023-08-17T08:49:39;102143.25;;;19.48;70.54
48267;BME280;34088;52.232;5.196;2023-08-17T08:52:07;102137.78;;;19.53;71.00
48267;BME280;34088;52.232;5.196;2023-08-17T08:54:35;102144.81;;;19.52;70.39
48267;BME280;34088;52.232;5.196;2023-08-17T08:57:03;102142.34;;;19.49;70.13
48267;BME280;34088;52.232;5.196;2023-08-17T08:59:30;102136.47;;;19.61;70.59
48267;BME280;34088;52.232;5.196;2023-08-17T09:01:57;102133.63;;;19.81;70.15
48267;BME280;34088;52.232;5.196;2023-08-17T09:04:23;102133.59;;;19.98;69.43
48267;BME280;34088;52.232;5.196;2023-08-17T09:06:50;102132.78;;;20.30;68.51
48267;BME280;34088;52.232;5.196;2023-08-17T09:09:16;102132.94;;;20.43;67.75
48267;BME280;34088;52.232;5.196;2023-08-17T09:11:43;102137.03;;;20.33;67.88
48267;BME280;34088;52.232;5.196;2023-08-17T09:14:08;102137.13;;;20.47;67.96
48267;BME280;34088;52.232;5.196;2023-08-17T09:16:34;102129.19;;;20.78;66.80
48267;BME280;34088;52.232;5.196;2023-08-17T09:18:59;102130.75;;;20.82;66.10
48267;BME280;34088;52.232;5.196;2023-08-17T09:21:25;102134.66;;;20.75;66.05
48267;BME280;34088;52.232;5.196;2023-08-17T09:23:59;102130.56;;;20.69;66.21
48267;BME280;34088;52.232;5.196;2023-08-17T09:26:24;102131.00;;;20.77;65.48
48267;BME280;34088;52.232;5.196;2023-08-17T09:28:50;102128.13;;;20.97;65.37
48267;BME280;34088;52.232;5.196;2023-08-17T09:31:16;102117.66;;;21.11;64.67
48267;BME280;34088;52.232;5.196;2023-08-17T09:33:49;102112.72;;;21.35;64.34
48267;BME280;34088;52.232;5.196;2023-08-17T09:36:14;102112.06;;;21.31;64.00
48267;BME280;34088;52.232;5.196;2023-08-17T09:38:40;102111.19;;;21.31;62.87
48267;BME280;34088;52.232;5.196;2023-08-17T09:41:06;102105.03;;;21.16;63.73
48267;BME280;34088;52.232;5.196;2023-08-17T09:43:31;102101.53;;;21.45;63.17
48267;BME280;34088;52.232;5.196;2023-08-17T09:45:59;102102.94;;;21.80;62.60
48267;BME280;34088;52.232;5.196;2023-08-17T09:48:27;102106.41;;;21.23;62.94
48267;BME280;34088;52.232;5.196;2023-08-17T09:50:55;102111.91;;;21.19;63.34
48267;BME280;34088;52.232;5.196;2023-08-17T09:53:21;102108.97;;;21.09;64.03
48267;BME280;34088;52.232;5.196;2023-08-17T09:55:47;102104.66;;;21.38;63.68
48267;BME280;34088;52.232;5.196;2023-08-17T09:58:13;102094.84;;;21.40;62.74
48267;BME280;34088;52.232;5.196;2023-08-17T10:00:43;102091.78;;;21.61;62.75
48267;BME280;34088;52.232;5.196;2023-08-17T10:03:09;102089.50;;;21.55;63.27
48267;BME280;34088;52.232;5.196;2023-08-17T10:05:38;102094.69;;;21.57;63.48
48267;BME280;34088;52.232;5.196;2023-08-17T10:08:06;102088.31;;;21.17;63.43
48267;BME280;34088;52.232;5.196;2023-08-17T10:10:34;102104.13;;;21.02;64.55
48267;BME280;34088;52.232;5.196;2023-08-17T10:13:09;102096.22;;;21.17;64.89
48267;BME280;34088;52.232;5.196;2023-08-17T10:15:45;102085.13;;;21.26;64.01
48267;BME280;34088;52.232;5.196;2023-08-17T10:21:06;102084.22;;;20.82;64.70
48267;BME280;34088;52.232;5.196;2023-08-17T10:23:33;102087.13;;;20.62;65.32
48267;BME280;34088;52.232;5.196;2023-08-17T10:26:00;102094.41;;;20.57;66.42
48267;BME280;34088;52.232;5.196;2023-08-17T10:28:27;102096.72;;;20.94;65.91
48267;BME280;34088;52.232;5.196;2023-08-17T10:30:53;102090.91;;;21.33;65.10
48267;BME280;34088;52.232;5.196;2023-08-17T10:33:19;102084.56;;;21.21;65.20
48267;BME280;34088;52.232;5.196;2023-08-17T10:35:45;102092.19;;;20.96;65.47
48267;BME280;34088;52.232;5.196;2023-08-17T10:38:11;102093.97;;;20.80;66.02
48267;BME280;34088;52.232;5.196;2023-08-17T10:40:41;102097.09;;;21.02;65.98
48267;BME280;34088;52.232;5.196;2023-08-17T10:43:06;102089.78;;;21.07;66.32
48267;BME280;34088;52.232;5.196;2023-08-17T10:45:33;102088.94;;;21.07;66.07
48267;BME280;34088;52.232;5.196;2023-08-17T10:50:31;102079.50;;;21.32;65.63
48267;BME280;34088;52.232;5.196;2023-08-17T10:53:03;102078.16;;;21.25;65.12
48267;BME280;34088;52.232;5.196;2023-08-17T10:55:40;102077.59;;;21.20;65.70
48267;BME280;34088;52.232;5.196;2023-08-17T10:58:07;102076.88;;;21.32;65.40
48267;BME280;34088;52.232;5.196;2023-08-17T11:00:39;102074.38;;;21.15;65.20
48267;BME280;34088;52.232;5.196;2023-08-17T11:03:24;102075.31;;;21.14;65.11
48267;BME280;34088;52.232;5.196;2023-08-17T11:05:54;102082.16;;;21.03;65.57
48267;BME280;34088;52.232;5.196;2023-08-17T11:08:39;102087.28;;;20.90;66.03
48267;BME280;34088;52.232;5.196;2023-08-17T11:11:10;102092.66;;;20.87;65.72
48267;BME280;34088;52.232;5.196;2023-08-17T11:13:40;102090.41;;;20.97;65.74
48267;BME280;34088;52.232;5.196;2023-08-17T11:16:07;102094.56;;;21.01;65.87
48267;BME280;34088;52.232;5.196;2023-08-17T11:18:33;102098.47;;;20.94;65.98
48267;BME280;34088;52.232;5.196;2023-08-17T11:21:01;102091.09;;;21.00;66.12
48267;BME280;34088;52.232;5.196;2023-08-17T11:23:29;102084.69;;;21.04;65.72
48267;BME280;34088;52.232;5.196;2023-08-17T11:25:55;102084.22;;;20.98;66.04
48267;BME280;34088;52.232;5.196;2023-08-17T11:28:21;102079.97;;;20.95;66.03
48267;BME280;34088;52.232;5.196;2023-08-17T11:30:59;102075.88;;;20.90;65.87
48267;BME280;34088;52.232;5.196;2023-08-17T11:33:29;102085.59;;;20.89;66.07
48267;BME280;34088;52.232;5.196;2023-08-17T11:35:56;102082.34;;;20.84;66.32
48267;BME280;34088;52.232;5.196;2023-08-17T11:38:22;102087.59;;;21.00;67.01
48267;BME280;34088;52.232;5.196;2023-08-17T11:40:48;102081.97;;;21.06;66.18
48267;BME280;34088;52.232;5.196;2023-08-17T11:43:14;102087.50;;;21.01;65.89
48267;BME280;34088;52.232;5.196;2023-08-17T11:45:40;102075.00;;;21.05;65.63
48267;BME280;34088;52.232;5.196;2023-08-17T11:48:05;102084.09;;;20.99;66.44
48267;BME280;34088;52.232;5.196;2023-08-17T11:50:30;102076.53;;;21.09;66.19
48267;BME280;34088;52.232;5.196;2023-08-17T11:52:59;102077.38;;;21.09;66.69
48267;BME280;34088;52.232;5.196;2023-08-17T11:55:25;102085.72;;;20.86;66.59
48267;BME280;34088;52.232;5.196;2023-08-17T11:57:50;102085.72;;;20.86;66.58
48267;BME280;34088;52.232;5.196;2023-08-17T12:00:20;102070.72;;;20.88;66.54
48267;BME280;34088;52.232;5.196;2023-08-17T12:02:49;102080.13;;;20.92;66.43
48267;BME280;34088;52.232;5.196;2023-08-17T12:05:22;102077.91;;;20.85;66.24
48267;BME280;34088;52.232;5.196;2023-08-17T12:07:53;102070.63;;;20.74;67.03
48267;BME280;34088;52.232;5.196;2023-08-17T12:10:18;102072.56;;;20.86;66.91
48267;BME280;34088;52.232;5.196;2023-08-17T12:12:50;102070.91;;;20.70;67.21
48267;BME280;34088;52.232;5.196;2023-08-17T12:15:18;102070.22;;;20.66;67.52
48267;BME280;34088;52.232;5.196;2023-08-17T12:17:48;102071.50;;;20.75;67.00
48267;BME280;34088;52.232;5.196;2023-08-17T12:20:17;102065.56;;;20.71;67.51
48267;BME280;34088;52.232;5.196;2023-08-17T12:22:43;102068.50;;;20.81;67.49
48267;BME280;34088;52.232;5.196;2023-08-17T12:25:09;102066.97;;;20.92;67.50
48267;BME280;34088;52.232;5.196;2023-08-17T12:27:35;102063.66;;;20.89;67.50
48267;BME280;34088;52.232;5.196;2023-08-17T12:30:01;102057.69;;;21.01;66.54
48267;BME280;34088;52.232;5.196;2023-08-17T12:32:26;102068.41;;;20.82;67.80
48267;BME280;34088;52.232;5.196;2023-08-17T12:34:51;102051.97;;;21.08;67.52
48267;BME280;34088;52.232;5.196;2023-08-17T12:37:21;102053.38;;;21.14;67.37
48267;BME280;34088;52.232;5.196;2023-08-17T12:39:47;102049.94;;;21.13;67.06
48267;BME280;34088;52.232;5.196;2023-08-17T12:42:13;102059.50;;;21.14;67.30
48267;BME280;34088;52.232;5.196;2023-08-17T12:44:39;102058.34;;;21.04;66.98
48267;BME280;34088;52.232;5.196;2023-08-17T12:47:04;102064.75;;;21.00;67.05
48267;BME280;34088;52.232;5.196;2023-08-17T12:49:30;102069.44;;;20.95;67.83
48267;BME280;34088;52.232;5.196;2023-08-17T12:51:55;102066.16;;;21.06;67.89
48267;BME280;34088;52.232;5.196;2023-08-17T12:54:20;102060.94;;;21.20;67.99
48267;BME280;34088;52.232;5.196;2023-08-17T12:56:45;102064.91;;;21.27;67.19
48267;BME280;34088;52.232;5.196;2023-08-17T12:59:11;102064.03;;;21.12;67.72
48267;BME280;34088;52.232;5.196;2023-08-17T13:01:36;102068.34;;;21.13;67.70
48267;BME280;34088;52.232;5.196;2023-08-17T13:04:01;102063.19;;;21.26;67.85